createdAt,value
2022-12-18T00:01:14.378Z,102193.00
2022-12-18T00:03:41.444Z,102203.00
2022-12-18T00:06:09.561Z,102210.00
2022-12-18T00:08:36.457Z,102216.00
2022-12-18T00:11:10.243Z,102221.00
2022-12-18T00:13:37.402Z,102211.00
2022-12-18T00:16:10.359Z,102211.00
2022-12-18T00:18:37.983Z,102203.00
2022-12-18T00:21:07.098Z,102221.00
2022-12-18T00:23:34.964Z,102215.00
2022-12-18T00:26:03.341Z,102222.00
2022-12-18T00:28:31.218Z,102201.00
2022-12-18T00:31:05.810Z,102212.00
2022-12-18T00:33:32.460Z,102206.00
2022-12-18T00:36:06.803Z,102213.00
2022-12-18T00:38:34.174Z,102203.00
2022-12-18T00:41:00.926Z,102197.00
2022-12-18T00:43:28.201Z,102208.00
2022-12-18T00:45:55.307Z,102201.00
2022-12-18T00:48:22.372Z,102193.00
2022-12-18T00:50:49.941Z,102208.00
2022-12-18T00:53:16.984Z,102212.00
2022-12-18T00:55:44.131Z,102203.00
2022-12-18T00:58:11.528Z,102199.00
2022-12-18T01:00:38.904Z,102191.00
2022-12-18T01:03:06.210Z,102190.00
2022-12-18T01:05:33.551Z,102183.00
2022-12-18T01:08:00.736Z,102191.00
2022-12-18T01:10:27.883Z,102168.00
2022-12-18T01:12:57.804Z,102192.00
2022-12-18T01:15:24.343Z,102200.00
2022-12-18T01:17:53.244Z,102199.00
2022-12-18T01:20:19.879Z,102199.00
2022-12-18T01:22:46.429Z,102217.00
2022-12-18T01:25:12.927Z,102211.00
2022-12-18T01:27:39.499Z,102218.00
2022-12-18T01:30:06.780Z,102201.00
2022-12-18T01:32:33.369Z,102230.00
2022-12-18T01:34:59.941Z,102222.00
2022-12-18T01:37:27.413Z,102218.00
2022-12-18T01:39:55.264Z,102213.00
2022-12-18T01:42:22.504Z,102221.00
2022-12-18T01:45:07.491Z,102237.00
2022-12-18T01:47:57.671Z,102224.00
2022-12-18T01:50:30.311Z,102223.00
2022-12-18T01:53:18.515Z,102229.00
2022-12-18T01:55:51.679Z,102220.00
2022-12-18T01:58:19.361Z,102216.00
2022-12-18T02:00:46.053Z,102215.00
2022-12-18T02:03:13.006Z,102232.00
2022-12-18T02:05:46.857Z,102234.00
2022-12-18T02:08:39.143Z,102225.00
2022-12-18T02:11:57.571Z,102237.00
2022-12-18T02:14:38.622Z,102246.00
2022-12-18T02:17:24.717Z,102235.00
2022-12-18T02:20:00.965Z,102247.00
2022-12-18T02:22:47.495Z,102244.00
2022-12-18T02:25:42.104Z,102244.00
2022-12-18T02:28:12.434Z,102252.00
2022-12-18T02:30:40.490Z,102243.00
2022-12-18T02:33:11.091Z,102241.00
2022-12-18T02:35:39.794Z,102255.00
2022-12-18T02:38:07.069Z,102254.00
2022-12-18T02:40:37.051Z,102251.00
2022-12-18T02:43:09.337Z,102261.00
2022-12-18T02:45:35.937Z,102270.00
2022-12-18T02:48:03.327Z,102255.00
2022-12-18T02:50:35.946Z,102261.00
2022-12-18T02:53:11.066Z,102276.00
2022-12-18T02:55:50.204Z,102270.00
2022-12-18T02:58:49.138Z,102277.00
2022-12-18T03:01:44.312Z,102293.00
2022-12-18T03:04:23.449Z,102283.00
2022-12-18T03:06:52.167Z,102278.00
2022-12-18T03:09:35.283Z,102267.00
2022-12-18T03:12:24.799Z,102281.00
2022-12-18T03:15:26.733Z,102280.00
2022-12-18T03:18:07.124Z,102275.00
2022-12-18T03:20:35.823Z,102277.00
2022-12-18T03:23:10.456Z,102276.00
2022-12-18T03:25:41.079Z,102285.00
2022-12-18T03:28:11.259Z,102283.00
2022-12-18T03:30:40.480Z,102282.00
2022-12-18T03:33:12.183Z,102282.00
2022-12-18T03:35:43.831Z,102284.00
2022-12-18T03:38:12.495Z,102274.00
2022-12-18T03:41:02.060Z,102276.00
2022-12-18T03:43:48.701Z,102263.00
2022-12-18T03:46:31.072Z,102264.00
2022-12-18T03:49:08.045Z,102277.00
2022-12-18T03:52:15.031Z,102275.00
2022-12-18T03:54:42.637Z,102268.00
2022-12-18T03:57:25.925Z,102274.00
2022-12-18T04:00:00.844Z,102278.00
2022-12-18T04:02:44.271Z,102292.00
2022-12-18T04:05:13.543Z,102288.00
2022-12-18T04:07:42.543Z,102286.00
2022-12-18T04:10:14.115Z,102288.00
2022-12-18T04:12:41.287Z,102272.00
2022-12-18T04:15:14.016Z,102288.00
2022-12-18T04:17:48.045Z,102280.00
2022-12-18T04:20:16.445Z,102286.00
2022-12-18T04:22:44.357Z,102294.00
2022-12-18T04:25:11.259Z,102288.00
2022-12-18T04:27:41.912Z,102280.00
2022-12-18T04:30:09.667Z,102293.00
2022-12-18T04:32:36.468Z,102279.00
2022-12-18T04:35:05.109Z,102306.00
2022-12-18T04:37:32.597Z,102309.00
2022-12-18T04:39:59.809Z,102307.00
2022-12-18T04:42:34.125Z,102307.00
2022-12-18T04:45:00.770Z,102298.00
2022-12-18T04:47:27.379Z,102303.00
2022-12-18T04:49:53.957Z,102300.00
2022-12-18T04:52:20.548Z,102303.00
2022-12-18T04:54:47.149Z,102308.00
2022-12-18T04:57:13.670Z,102317.00
2022-12-18T04:59:40.980Z,102315.00
2022-12-18T05:02:07.685Z,102317.00
2022-12-18T05:04:34.278Z,102314.00
2022-12-18T05:07:00.773Z,102323.00
2022-12-18T05:09:27.346Z,102309.00
2022-12-18T05:11:54.638Z,102324.00
2022-12-18T05:14:21.173Z,102318.00
2022-12-18T05:16:47.748Z,102311.00
2022-12-18T05:19:14.280Z,102305.00
2022-12-18T05:21:40.931Z,102299.00
2022-12-18T05:24:07.596Z,102318.00
2022-12-18T05:26:34.253Z,102323.00
2022-12-18T05:29:00.779Z,102332.00
2022-12-18T05:31:27.389Z,102343.00
2022-12-18T05:33:53.909Z,102331.00
2022-12-18T05:36:20.417Z,102335.00
2022-12-18T05:38:47.015Z,102330.00
2022-12-18T05:41:13.546Z,102333.00
2022-12-18T05:43:41.123Z,102341.00
2022-12-18T05:46:13.904Z,102344.00
2022-12-18T05:48:40.673Z,102345.00
2022-12-18T05:51:09.406Z,102357.00
2022-12-18T05:53:37.343Z,102358.00
2022-12-18T05:56:06.022Z,102361.00
2022-12-18T05:58:33.323Z,102350.00
2022-12-18T06:01:11.415Z,102344.00
2022-12-18T06:03:38.213Z,102345.00
2022-12-18T06:06:05.217Z,102353.00
2022-12-18T06:08:31.888Z,102362.00
2022-12-18T06:10:58.429Z,102361.00
2022-12-18T06:13:25.013Z,102358.00
2022-12-18T06:15:51.612Z,102360.00
2022-12-18T06:18:18.227Z,102368.00
2022-12-18T06:20:44.768Z,102382.00
2022-12-18T06:23:11.482Z,102385.00
2022-12-18T06:25:39.571Z,102387.00
2022-12-18T06:28:06.319Z,102386.00
2022-12-18T06:30:32.875Z,102394.00
2022-12-18T06:32:59.458Z,102387.00
2022-12-18T06:35:25.975Z,102398.00
2022-12-18T06:37:52.513Z,102390.00
2022-12-18T06:40:19.063Z,102389.00
2022-12-18T06:42:45.619Z,102400.00
2022-12-18T06:45:12.449Z,102405.00
2022-12-18T06:47:39.090Z,102409.00
2022-12-18T06:50:06.450Z,102417.00
2022-12-18T06:52:33.514Z,102416.00
2022-12-18T06:55:00.543Z,102417.00
2022-12-18T06:57:27.079Z,102406.00
2022-12-18T06:59:53.564Z,102404.00
2022-12-18T07:02:20.134Z,102423.00
2022-12-18T07:04:46.727Z,102428.00
2022-12-18T07:07:16.208Z,102437.00
2022-12-18T07:09:42.842Z,102438.00
2022-12-18T07:12:09.953Z,102435.00
2022-12-18T07:14:36.452Z,102426.00
2022-12-18T07:17:03.004Z,102432.00
2022-12-18T07:19:30.287Z,102427.00
2022-12-18T07:21:57.543Z,102433.00
2022-12-18T07:24:24.042Z,102409.00
2022-12-18T07:26:50.562Z,102418.00
2022-12-18T07:29:17.039Z,102428.00
2022-12-18T07:31:43.691Z,102433.00
2022-12-18T07:34:13.951Z,102440.00
2022-12-18T07:36:40.521Z,102421.00
2022-12-18T07:39:07.251Z,102437.00
2022-12-18T07:41:34.206Z,102431.00
2022-12-18T07:44:11.459Z,102433.00
2022-12-18T07:46:38.079Z,102433.00
2022-12-18T07:49:04.735Z,102418.00
2022-12-18T07:51:31.371Z,102432.00
2022-12-18T07:53:58.150Z,102427.00
2022-12-18T07:56:29.557Z,102438.00
2022-12-18T07:58:57.238Z,102432.00
2022-12-18T08:01:24.119Z,102430.00
2022-12-18T08:03:52.251Z,102431.00
2022-12-18T08:06:19.428Z,102428.00
2022-12-18T08:08:49.198Z,102430.00
2022-12-18T08:11:16.495Z,102431.00
2022-12-18T08:13:43.347Z,102443.00
2022-12-18T08:16:10.060Z,102445.00
2022-12-18T08:18:38.191Z,102438.00
2022-12-18T08:21:14.277Z,102438.00
2022-12-18T08:23:43.351Z,102438.00
2022-12-18T08:26:11.132Z,102443.00
2022-12-18T08:28:37.677Z,102442.00
2022-12-18T08:31:04.832Z,102435.00
2022-12-18T08:33:31.544Z,102425.00
2022-12-18T08:35:59.712Z,102441.00
2022-12-18T08:38:26.252Z,102438.00
2022-12-18T08:41:07.316Z,102447.00
2022-12-18T08:44:00.210Z,102443.00
2022-12-18T08:46:28.156Z,102439.00
2022-12-18T08:48:56.771Z,102443.00
2022-12-18T08:51:23.309Z,102436.00
2022-12-18T08:53:50.005Z,102441.00
2022-12-18T08:56:16.840Z,102459.00
2022-12-18T08:58:43.490Z,102453.00
2022-12-18T09:01:12.094Z,102450.00
2022-12-18T09:03:40.174Z,102464.00
2022-12-18T09:06:07.356Z,102469.00
2022-12-18T09:08:38.028Z,102474.00
2022-12-18T09:11:05.165Z,102486.00
2022-12-18T09:13:31.739Z,102475.00
2022-12-18T09:15:58.323Z,102484.00
2022-12-18T09:18:25.184Z,102475.00
2022-12-18T09:20:53.366Z,102476.00
2022-12-18T09:23:20.577Z,102479.00
2022-12-18T09:25:47.368Z,102478.00
2022-12-18T09:28:15.605Z,102470.00
2022-12-18T09:30:45.097Z,102498.00
2022-12-18T09:33:11.918Z,102495.00
2022-12-18T09:35:41.935Z,102509.00
2022-12-18T09:38:09.981Z,102495.00
2022-12-18T09:40:44.940Z,102491.00
2022-12-18T09:43:19.343Z,102497.00
2022-12-18T09:45:50.739Z,102475.00
2022-12-18T09:48:24.856Z,102486.00
2022-12-18T09:50:52.513Z,102479.00
2022-12-18T09:53:27.266Z,102468.00
2022-12-18T09:55:55.302Z,102464.00
2022-12-18T09:58:29.582Z,102466.00
2022-12-18T10:00:56.511Z,102452.00
2022-12-18T10:03:23.126Z,102439.00
2022-12-18T10:06:07.689Z,102453.00
2022-12-18T10:08:56.120Z,102441.00
2022-12-18T10:11:53.766Z,102435.00
2022-12-18T10:14:43.489Z,102420.00
2022-12-18T10:17:19.182Z,102415.00
2022-12-18T10:20:14.470Z,102410.00
2022-12-18T10:22:58.327Z,102419.00
2022-12-18T10:25:30.190Z,102418.00
2022-12-18T10:27:59.384Z,102425.00
2022-12-18T10:30:27.294Z,102420.00
2022-12-18T10:32:55.108Z,102429.00
2022-12-18T10:35:27.915Z,102415.00
2022-12-18T10:38:25.196Z,102420.00
2022-12-18T10:41:19.999Z,102414.00
2022-12-18T10:43:48.768Z,102409.00
2022-12-18T10:46:18.453Z,102410.00
2022-12-18T10:48:48.085Z,102402.00
2022-12-18T10:51:41.162Z,102397.00
2022-12-18T10:54:24.084Z,102395.00
2022-12-18T10:56:50.694Z,102392.00
2022-12-18T10:59:18.794Z,102392.00
2022-12-18T11:01:54.953Z,102391.00
2022-12-18T11:04:23.746Z,102390.00
2022-12-18T11:06:59.141Z,102386.00
2022-12-18T11:09:34.256Z,102382.00
2022-12-18T11:12:03.148Z,102385.00
2022-12-18T11:14:34.693Z,102381.00
2022-12-18T11:19:55.143Z,102386.00
2022-12-18T11:22:28.978Z,102383.00
2022-12-18T11:27:57.021Z,102373.00
2022-12-18T11:30:37.412Z,102383.00
2022-12-18T11:33:07.799Z,102391.00
2022-12-18T11:35:43.275Z,102381.00
2022-12-18T11:38:26.447Z,102382.00
2022-12-18T11:41:13.253Z,102397.00
2022-12-18T11:43:41.793Z,102392.00
2022-12-18T11:46:17.728Z,102390.00
2022-12-18T11:48:49.819Z,102388.00
2022-12-18T11:51:26.240Z,102395.00
2022-12-18T11:53:53.723Z,102389.00
2022-12-18T11:56:32.038Z,102390.00
2022-12-18T11:59:02.719Z,102373.00
2022-12-18T12:01:55.673Z,102372.00
2022-12-18T12:04:35.074Z,102382.00
2022-12-18T12:07:08.493Z,102389.00
2022-12-18T12:09:51.329Z,102387.00
2022-12-18T12:12:25.181Z,102396.00
2022-12-18T12:15:07.858Z,102395.00
2022-12-18T12:17:54.950Z,102399.00
2022-12-18T12:20:49.099Z,102402.00
2022-12-18T12:23:53.337Z,102401.00
2022-12-18T12:26:57.556Z,102405.00
2022-12-18T12:29:30.543Z,102405.00
2022-12-18T12:32:54.606Z,102400.00
2022-12-18T12:35:36.374Z,102404.00
2022-12-18T12:38:13.220Z,102418.00
2022-12-18T12:40:55.366Z,102416.00
2022-12-18T12:43:50.682Z,102412.00
2022-12-18T12:46:20.039Z,102421.00
2022-12-18T12:48:53.480Z,102429.00
2022-12-18T12:51:29.991Z,102428.00
2022-12-18T12:53:58.351Z,102421.00
2022-12-18T12:56:28.823Z,102430.00
2022-12-18T12:59:05.341Z,102443.00
2022-12-18T13:01:56.831Z,102425.00
2022-12-18T13:04:42.658Z,102408.00
2022-12-18T13:07:24.045Z,102387.00
2022-12-18T13:10:23.600Z,102376.00
2022-12-18T13:16:06.665Z,102378.00
2022-12-18T13:18:34.126Z,102361.00
2022-12-18T13:21:03.171Z,102389.00
2022-12-18T13:23:54.725Z,102388.00
2022-12-18T13:26:32.315Z,102363.00
2022-12-18T13:29:00.137Z,102359.00
2022-12-18T13:31:42.572Z,102406.00
2022-12-18T13:34:27.695Z,102393.00
2022-12-18T13:36:57.224Z,102400.00
2022-12-18T13:39:35.500Z,102394.00
2022-12-18T13:42:05.626Z,102390.00
2022-12-18T13:44:40.841Z,102387.00
2022-12-18T13:47:27.471Z,102387.00
2022-12-18T13:49:54.590Z,102391.00
2022-12-18T13:52:27.662Z,102382.00
2022-12-18T13:55:02.523Z,102367.00
2022-12-18T13:57:39.262Z,102357.00
2022-12-18T14:00:25.335Z,102358.00
2022-12-18T14:02:52.609Z,102355.00
2022-12-18T14:05:26.750Z,102354.00
2022-12-18T14:07:54.834Z,102351.00
2022-12-18T14:13:11.006Z,102343.00
2022-12-18T14:15:44.522Z,102338.00
2022-12-18T14:18:18.234Z,102357.00
2022-12-18T14:20:52.545Z,102352.00
2022-12-18T14:23:40.687Z,102340.00
2022-12-18T14:26:26.344Z,102349.00
2022-12-18T14:28:54.703Z,102353.00
2022-12-18T14:31:26.789Z,102335.00
2022-12-18T14:33:54.079Z,102331.00
2022-12-18T14:36:25.647Z,102321.00
2022-12-18T14:38:54.806Z,102323.00
2022-12-18T14:41:22.316Z,102318.00
2022-12-18T14:43:50.932Z,102311.00
2022-12-18T14:46:36.854Z,102315.00
2022-12-18T14:49:19.981Z,102302.00
2022-12-18T14:51:51.460Z,102297.00
2022-12-18T14:54:20.028Z,102286.00
2022-12-18T14:56:52.478Z,102277.00
2022-12-18T14:59:24.675Z,102280.00
2022-12-18T15:01:54.563Z,102282.00
2022-12-18T15:04:26.417Z,102281.00
2022-12-18T15:07:19.226Z,102269.00
2022-12-18T15:10:12.867Z,102285.00
2022-12-18T15:12:42.589Z,102296.00
2022-12-18T15:15:34.178Z,102315.00
2022-12-18T15:18:04.800Z,102323.00
2022-12-18T15:20:31.572Z,102326.00
2022-12-18T15:22:58.218Z,102310.00
2022-12-18T15:25:34.498Z,102340.00
2022-12-18T15:28:01.208Z,102340.00
2022-12-18T15:30:27.744Z,102337.00
2022-12-18T15:33:17.827Z,102344.00
2022-12-18T15:35:47.106Z,102324.00
2022-12-18T15:38:13.952Z,102327.00
2022-12-18T15:40:40.441Z,102332.00
2022-12-18T15:43:28.113Z,102332.00
2022-12-18T15:45:54.654Z,102332.00
2022-12-18T15:48:22.842Z,102333.00
2022-12-18T15:50:51.489Z,102341.00
2022-12-18T15:53:18.710Z,102332.00
2022-12-18T15:56:04.201Z,102333.00
2022-12-18T15:58:31.499Z,102326.00
2022-12-18T16:00:58.941Z,102330.00
2022-12-18T16:03:25.514Z,102314.00
2022-12-18T16:05:52.914Z,102324.00
2022-12-18T16:08:20.453Z,102324.00
2022-12-18T16:10:47.014Z,102321.00
2022-12-18T16:13:21.695Z,102310.00
2022-12-18T16:15:48.395Z,102315.00
2022-12-18T16:18:15.229Z,102298.00
2022-12-18T16:20:41.863Z,102288.00
2022-12-18T16:23:08.528Z,102289.00
2022-12-18T16:25:35.062Z,102284.00
2022-12-18T16:28:01.591Z,102275.00
2022-12-18T16:30:32.020Z,102282.00
2022-12-18T16:33:02.534Z,102291.00
2022-12-18T16:35:29.099Z,102286.00
2022-12-18T16:37:55.651Z,102291.00
2022-12-18T16:40:22.176Z,102289.00
2022-12-18T16:42:48.706Z,102292.00
2022-12-18T16:45:17.839Z,102296.00
2022-12-18T16:47:45.139Z,102288.00
2022-12-18T16:50:11.839Z,102296.00
2022-12-18T16:52:38.715Z,102277.00
2022-12-18T16:55:05.687Z,102262.00
2022-12-18T16:57:32.274Z,102272.00
2022-12-18T17:00:04.409Z,102269.00
2022-12-18T17:02:32.159Z,102269.00
2022-12-18T17:04:59.377Z,102266.00
2022-12-18T17:07:27.582Z,102284.00
2022-12-18T17:09:54.511Z,102269.00
2022-12-18T17:12:24.223Z,102274.00
2022-12-18T17:14:50.876Z,102280.00
2022-12-18T17:17:22.709Z,102271.00
2022-12-18T17:19:50.298Z,102267.00
2022-12-18T17:22:16.834Z,102262.00
2022-12-18T17:24:43.463Z,102270.00
2022-12-18T17:27:09.997Z,102276.00
2022-12-18T17:29:36.536Z,102272.00
2022-12-18T17:32:03.412Z,102279.00
2022-12-18T17:34:30.088Z,102279.00
2022-12-18T17:36:57.336Z,102272.00
2022-12-18T17:39:23.947Z,102258.00
2022-12-18T17:41:50.509Z,102277.00
2022-12-18T17:44:17.887Z,102279.00
2022-12-18T17:46:44.592Z,102268.00
2022-12-18T17:49:11.561Z,102276.00
2022-12-18T17:51:38.855Z,102280.00
2022-12-18T17:54:06.363Z,102290.00
2022-12-18T17:56:33.245Z,102280.00
2022-12-18T17:59:00.322Z,102280.00
2022-12-18T18:01:27.422Z,102269.00
2022-12-18T18:03:56.008Z,102267.00
2022-12-18T18:06:23.538Z,102257.00
2022-12-18T18:08:50.310Z,102246.00
2022-12-18T18:11:37.622Z,102258.00
2022-12-18T18:14:07.521Z,102254.00
2022-12-18T18:16:43.481Z,102245.00
2022-12-18T18:19:12.683Z,102236.00
2022-12-18T18:21:41.319Z,102227.00
2022-12-18T18:24:09.023Z,102233.00
2022-12-18T18:26:37.331Z,102224.00
2022-12-18T18:29:06.052Z,102217.00
2022-12-18T18:31:35.663Z,102202.00
2022-12-18T18:34:07.734Z,102214.00
2022-12-18T18:36:34.787Z,102191.00
2022-12-18T18:39:02.203Z,102210.00
2022-12-18T18:41:30.377Z,102205.00
2022-12-18T18:43:58.053Z,102199.00
2022-12-18T18:46:25.600Z,102196.00
2022-12-18T18:48:52.507Z,102202.00
2022-12-18T18:51:21.752Z,102188.00
2022-12-18T18:53:50.477Z,102194.00
2022-12-18T18:59:05.703Z,102164.00
2022-12-18T19:01:32.928Z,102162.00
2022-12-18T19:04:03.742Z,102158.00
2022-12-18T19:06:31.242Z,102168.00
2022-12-18T19:09:02.208Z,102168.00
2022-12-18T19:11:47.794Z,102152.00
2022-12-18T19:14:15.298Z,102147.00
2022-12-18T19:16:43.504Z,102165.00
2022-12-18T19:19:11.133Z,102154.00
2022-12-18T19:21:38.210Z,102140.00
2022-12-18T19:24:05.671Z,102143.00
2022-12-18T19:26:32.306Z,102137.00
2022-12-18T19:29:03.322Z,102131.00
2022-12-18T19:31:35.148Z,102145.00
2022-12-18T19:34:02.112Z,102108.00
2022-12-18T19:36:29.879Z,102139.00
2022-12-18T19:38:59.127Z,102136.00
2022-12-18T19:41:29.150Z,102147.00
2022-12-18T19:43:58.396Z,102135.00
2022-12-18T19:46:25.346Z,102122.00
2022-12-18T19:48:52.065Z,102133.00
2022-12-18T19:51:22.305Z,102146.00
2022-12-18T19:53:51.390Z,102140.00
2022-12-18T19:56:22.825Z,102145.00
2022-12-18T19:58:49.440Z,102129.00
2022-12-18T20:01:17.862Z,102136.00
2022-12-18T20:03:50.034Z,102122.00
2022-12-18T20:06:31.139Z,102137.00
2022-12-18T20:09:01.933Z,102133.00
2022-12-18T20:11:30.045Z,102134.00
2022-12-18T20:13:57.507Z,102127.00
2022-12-18T20:16:26.934Z,102110.00
2022-12-18T20:18:56.463Z,102127.00
2022-12-18T20:21:23.796Z,102121.00
2022-12-18T20:23:50.409Z,102109.00
2022-12-18T20:26:17.022Z,102116.00
2022-12-18T20:28:43.811Z,102109.00
2022-12-18T20:31:13.556Z,102106.00
2022-12-18T20:33:41.355Z,102098.00
2022-12-18T20:36:13.203Z,102084.00
2022-12-18T20:38:41.437Z,102095.00
2022-12-18T20:41:16.286Z,102112.00
2022-12-18T20:43:43.782Z,102091.00
2022-12-18T20:46:12.869Z,102086.00
2022-12-18T20:48:42.297Z,102099.00
2022-12-18T20:51:14.954Z,102117.00
2022-12-18T20:53:42.665Z,102120.00
2022-12-18T20:56:19.635Z,102120.00
2022-12-18T20:58:49.408Z,102108.00
2022-12-18T21:01:18.409Z,102096.00
2022-12-18T21:03:45.996Z,102086.00
2022-12-18T21:06:14.054Z,102092.00
2022-12-18T21:08:42.407Z,102078.00
2022-12-18T21:11:40.894Z,102081.00
2022-12-18T21:14:18.896Z,102087.00
2022-12-18T21:16:45.873Z,102085.00
2022-12-18T21:19:14.641Z,102091.00
2022-12-18T21:21:41.888Z,102088.00
2022-12-18T21:24:09.839Z,102088.00
2022-12-18T21:26:41.855Z,102068.00
2022-12-18T21:29:17.353Z,102075.00
2022-12-18T21:31:45.316Z,102076.00
2022-12-18T21:34:22.939Z,102067.00
2022-12-18T21:36:49.870Z,102063.00
2022-12-18T21:39:17.237Z,102045.00
2022-12-18T21:42:03.027Z,102041.00
2022-12-18T21:44:30.095Z,102049.00
2022-12-18T21:47:09.398Z,102033.00
2022-12-18T21:49:45.342Z,102043.00
2022-12-18T21:52:11.942Z,102049.00
2022-12-18T21:54:38.595Z,102045.00
2022-12-18T21:57:06.344Z,102047.00
2022-12-18T21:59:35.123Z,102054.00
2022-12-18T22:02:23.453Z,102050.00
2022-12-18T22:04:50.027Z,102052.00
2022-12-18T22:07:16.900Z,102052.00
2022-12-18T22:09:44.981Z,102050.00
2022-12-18T22:12:13.743Z,102053.00
2022-12-18T22:14:40.331Z,102070.00
2022-12-18T22:17:07.010Z,102049.00
2022-12-18T22:19:38.139Z,102042.00
2022-12-18T22:22:09.376Z,102033.00
2022-12-18T22:24:35.872Z,102037.00
2022-12-18T22:27:02.560Z,102025.00
2022-12-18T22:29:48.233Z,102022.00
2022-12-18T22:32:17.003Z,102033.00
2022-12-18T22:34:48.025Z,102014.00
2022-12-18T22:37:14.656Z,102024.00
2022-12-18T22:39:41.157Z,102014.00
2022-12-18T22:42:08.324Z,102008.00
2022-12-18T22:44:35.001Z,102009.00
2022-12-18T22:47:05.906Z,102008.00
2022-12-18T22:49:35.812Z,101982.00
2022-12-18T22:52:09.210Z,101977.00
2022-12-18T22:54:36.151Z,101969.00
2022-12-18T22:57:02.692Z,101978.00
2022-12-18T22:59:29.814Z,101972.00
2022-12-18T23:01:59.166Z,101960.00
2022-12-18T23:04:35.910Z,101965.00
2022-12-18T23:07:06.047Z,101959.00
2022-12-18T23:09:32.970Z,101951.00
2022-12-18T23:11:59.544Z,101949.00
2022-12-18T23:14:26.203Z,101928.00
2022-12-18T23:16:53.203Z,101933.00
2022-12-18T23:19:20.345Z,101936.00
2022-12-18T23:21:47.090Z,101932.00
2022-12-18T23:24:13.698Z,101930.00
2022-12-18T23:26:40.678Z,101935.00
2022-12-18T23:29:07.475Z,101928.00
2022-12-18T23:31:38.307Z,101932.00
2022-12-18T23:34:06.033Z,101919.00
2022-12-18T23:36:37.657Z,101913.00
2022-12-18T23:39:15.611Z,101908.00
2022-12-18T23:41:56.391Z,101916.00
2022-12-18T23:44:22.917Z,101894.00
2022-12-18T23:46:49.518Z,101896.00
2022-12-18T23:49:16.138Z,101896.00
2022-12-18T23:51:42.889Z,101884.00
2022-12-18T23:54:10.031Z,101872.00
2022-12-18T23:56:36.575Z,101859.00
2022-12-18T23:59:03.229Z,101857.00
